Saint-Honore-De-Temiscouata, Canada
Current Conditions -  °F | °C
As of 2:28 AM on Saturday 20 Dec 2014 (Local Time) from KFVE Reporting Station
Scattered Clouds Scattered Clouds  
Wind Chill: -3°   Ceiling: Unl
Heat Index: 11°   Visibility: 10mi
Dew Point:   Wind: 12mph
Humidity: 88%   Direction: 340°NNW
Pressure: 30.18"   Gusts: NA
Location:  47.72°N, 69.13°W
Report Text: KFVE 200728Z AUTO 34010KT 10SM SCT007 M12/M13 A3018 RMK AO2 I1000 T11171133
Loading
Personal Weather Stations






























Interactive Weather Map New forecast layout! Learn more

10-Day Weather Forecast

Advertisements
Track Severe Weather on mobile